createdAt,value
2018-05-11T00:01:31.384Z,86.70
2018-05-11T00:03:59.033Z,86.30
2018-05-11T00:06:26.637Z,86.10
2018-05-11T00:08:54.265Z,86.70
2018-05-11T00:11:21.901Z,86.50
2018-05-11T00:13:50.273Z,85.80
2018-05-11T00:16:17.881Z,85.80
2018-05-11T00:18:45.706Z,85.70
2018-05-11T00:21:14.093Z,85.40
2018-05-11T00:23:42.449Z,86.50
2018-05-11T00:26:10.073Z,86.40
2018-05-11T00:28:39.188Z,85.70
2018-05-11T00:31:06.807Z,85.60
2018-05-11T00:33:34.411Z,86.10
2018-05-11T00:36:01.991Z,86.20
2018-05-11T00:38:29.623Z,86.40
2018-05-11T00:40:57.233Z,85.40
2018-05-11T00:43:25.642Z,86.10
2018-05-11T00:45:53.260Z,86.10
2018-05-11T00:48:22.415Z,85.60
2018-05-11T00:50:50.066Z,85.60
2018-05-11T00:53:17.732Z,85.50
2018-05-11T00:55:49.216Z,85.50
2018-05-11T00:58:18.162Z,86.20
2018-05-11T01:00:45.743Z,86.00
2018-05-11T01:03:13.324Z,86.40
2018-05-11T01:05:40.971Z,86.30
2018-05-11T01:08:08.649Z,86.00
2018-05-11T01:10:36.301Z,85.60
2018-05-11T01:13:03.882Z,85.60
2018-05-11T01:15:31.474Z,86.20
2018-05-11T01:17:59.100Z,86.30
2018-05-11T01:20:26.702Z,86.10
2018-05-11T01:22:54.342Z,86.40
2018-05-11T01:25:22.724Z,85.90
2018-05-11T01:27:51.120Z,86.30
2018-05-11T01:30:18.742Z,86.30
2018-05-11T01:32:46.321Z,86.00
2018-05-11T01:35:13.953Z,85.60
2018-05-11T01:37:41.539Z,85.60
2018-05-11T01:40:09.128Z,86.30
2018-05-11T01:42:36.713Z,85.80
2018-05-11T01:45:04.353Z,86.50
2018-05-11T01:47:31.932Z,85.40
2018-05-11T01:49:59.569Z,85.50
2018-05-11T01:52:27.180Z,85.40
2018-05-11T01:54:54.832Z,85.60
2018-05-11T01:57:22.466Z,86.30
2018-05-11T01:59:50.035Z,85.90
2018-05-11T02:02:17.649Z,86.20
2018-05-11T02:04:46.073Z,85.70
2018-05-11T02:07:13.693Z,85.70
2018-05-11T02:09:42.023Z,85.70
2018-05-11T02:12:09.636Z,85.60
2018-05-11T02:14:38.033Z,85.60
2018-05-11T02:17:05.617Z,85.60
2018-05-11T02:19:33.230Z,85.40
2018-05-11T02:22:00.811Z,85.40
2018-05-11T02:24:28.424Z,85.30
2018-05-11T02:26:56.016Z,85.50
2018-05-11T02:29:23.618Z,85.40
2018-05-11T02:31:51.209Z,85.50
2018-05-11T02:34:19.027Z,85.50
2018-05-11T02:36:46.640Z,85.20
2018-05-11T02:39:14.278Z,85.40
2018-05-11T02:41:41.867Z,85.20
2018-05-11T02:44:09.494Z,84.60
2018-05-11T02:46:37.083Z,85.40
2018-05-11T02:49:04.680Z,85.40
2018-05-11T02:51:32.297Z,85.40
2018-05-11T02:53:59.954Z,85.40
2018-05-11T02:56:27.584Z,85.40
2018-05-11T02:58:55.210Z,85.40
2018-05-11T03:01:23.564Z,85.30
2018-05-11T03:03:51.186Z,85.30
2018-05-11T03:06:18.838Z,85.50
2018-05-11T03:08:46.492Z,85.00
2018-05-11T03:11:14.104Z,85.50
2018-05-11T03:13:41.709Z,84.70
2018-05-11T03:16:09.360Z,84.70
2018-05-11T03:18:37.818Z,85.10
2018-05-11T03:21:05.359Z,85.00
2018-05-11T03:23:32.973Z,84.80
2018-05-11T03:26:00.566Z,85.20
2018-05-11T03:28:28.175Z,85.50
2018-05-11T03:30:56.568Z,85.60
2018-05-11T03:33:24.191Z,85.60
2018-05-11T03:35:51.814Z,85.50
2018-05-11T03:38:19.417Z,85.40
2018-05-11T03:40:47.047Z,85.60
2018-05-11T03:43:14.662Z,86.20
2018-05-11T03:45:42.992Z,86.00
2018-05-11T03:48:10.636Z,86.00
2018-05-11T03:50:38.240Z,86.00
2018-05-11T03:53:05.875Z,85.40
2018-05-11T03:58:29.255Z,85.90
2018-05-11T04:00:56.853Z,85.90
2018-05-11T04:03:36.383Z,86.40
2018-05-11T04:06:06.641Z,86.30
2018-05-11T04:08:42.049Z,86.50
2018-05-11T04:11:09.665Z,86.60
2018-05-11T04:13:37.275Z,86.60
2018-05-11T04:16:04.925Z,86.60
2018-05-11T04:18:32.555Z,86.60
2018-05-11T04:21:00.159Z,86.20
2018-05-11T04:23:27.801Z,85.70
2018-05-11T04:25:55.521Z,85.60
2018-05-11T04:28:23.154Z,85.60
2018-05-11T04:30:50.785Z,85.70
2018-05-11T04:33:18.411Z,85.50
2018-05-11T04:35:46.036Z,85.70
2018-05-11T04:38:14.399Z,84.80
2018-05-11T04:41:00.845Z,84.80
2018-05-11T04:43:28.487Z,83.80
2018-05-11T04:45:56.879Z,83.50
2018-05-11T04:48:25.273Z,83.00
2018-05-11T04:50:52.858Z,83.00
2018-05-11T04:53:20.473Z,82.50
2018-05-11T04:55:48.993Z,81.30
2018-05-11T04:58:16.774Z,81.20
2018-05-11T05:01:03.738Z,80.70
2018-05-11T05:03:32.130Z,79.20
2018-05-11T05:05:59.787Z,79.10
2018-05-11T05:08:27.403Z,79.90
2018-05-11T05:10:54.999Z,78.10
2018-05-11T05:13:26.128Z,78.00
2018-05-11T05:15:54.518Z,78.00
2018-05-11T05:18:22.910Z,78.90
2018-05-11T05:20:50.552Z,78.80
2018-05-11T05:23:18.924Z,78.60
2018-05-11T05:25:46.644Z,78.60
2018-05-11T05:28:14.265Z,79.40
2018-05-11T05:30:42.640Z,78.10
2018-05-11T05:33:11.052Z,77.00
2018-05-11T05:35:38.719Z,76.90
2018-05-11T05:38:06.374Z,76.70
2018-05-11T05:40:34.087Z,76.50
2018-05-11T05:43:02.022Z,77.30
2018-05-11T05:45:30.049Z,76.70
2018-05-11T05:47:57.685Z,77.60
2018-05-11T05:50:25.291Z,77.80
2018-05-11T05:52:53.114Z,78.20
2018-05-11T05:55:20.955Z,76.10
2018-05-11T05:57:48.632Z,76.80
2018-05-11T06:00:16.163Z,75.70
2018-05-11T06:02:43.980Z,74.30
2018-05-11T06:05:12.288Z,76.00
2018-05-11T06:07:39.809Z,76.00
2018-05-11T06:10:07.388Z,76.80
2018-05-11T06:12:34.983Z,75.20
2018-05-11T06:15:02.534Z,76.20
2018-05-11T06:17:30.130Z,76.70
2018-05-11T06:19:57.910Z,76.10
2018-05-11T06:22:25.461Z,75.60
2018-05-11T06:24:55.253Z,77.10
2018-05-11T06:27:22.745Z,77.10
2018-05-11T06:29:50.316Z,76.50
2018-05-11T06:32:18.611Z,76.80
2018-05-11T06:34:46.200Z,76.70
2018-05-11T06:37:13.826Z,77.10
2018-05-11T06:39:41.346Z,76.70
2018-05-11T06:42:08.888Z,75.60
2018-05-11T06:44:36.424Z,76.30
2018-05-11T06:47:03.986Z,75.40
2018-05-11T06:49:31.522Z,75.60
2018-05-11T06:51:59.802Z,75.80
2018-05-11T06:54:27.348Z,75.90
2018-05-11T06:56:55.623Z,75.90
2018-05-11T06:59:24.854Z,75.90
2018-05-11T07:01:52.393Z,75.80
2018-05-11T07:04:21.016Z,77.00
2018-05-11T07:06:48.531Z,76.80
2018-05-11T07:09:16.815Z,76.90
2018-05-11T07:11:44.391Z,76.80
2018-05-11T07:14:11.931Z,76.80
2018-05-11T07:16:39.483Z,76.80
2018-05-11T07:19:07.828Z,76.80
2018-05-11T07:21:35.429Z,76.80
2018-05-11T07:24:03.041Z,76.70
2018-05-11T07:26:30.669Z,75.90
2018-05-11T07:28:58.288Z,74.90
2018-05-11T07:31:26.695Z,76.10
2018-05-11T07:33:54.331Z,76.10
2018-05-11T07:36:22.688Z,77.20
2018-05-11T07:38:50.293Z,77.10
2018-05-11T07:41:17.911Z,75.10
2018-05-11T07:43:47.049Z,74.50
2018-05-11T07:46:14.614Z,74.50
2018-05-11T07:48:42.508Z,74.40
2018-05-11T07:51:10.119Z,73.70
2018-05-11T07:53:38.501Z,73.40
2018-05-11T07:56:06.883Z,73.40
2018-05-11T07:58:35.325Z,73.70
2018-05-11T08:01:02.953Z,73.80
2018-05-11T08:03:30.578Z,73.90
2018-05-11T08:05:59.106Z,72.90
2018-05-11T08:08:26.727Z,72.80
2018-05-11T08:10:55.092Z,74.40
2018-05-11T08:13:22.706Z,74.30
2018-05-11T08:15:50.328Z,73.80
2018-05-11T08:18:18.731Z,71.50
2018-05-11T08:20:46.328Z,71.50
2018-05-11T08:23:13.962Z,71.40
2018-05-11T08:25:41.596Z,71.50
2018-05-11T08:28:09.204Z,71.20
2018-05-11T08:30:36.872Z,71.20
2018-05-11T08:33:04.496Z,71.20
2018-05-11T08:35:32.138Z,71.00
2018-05-11T08:37:59.773Z,72.40
2018-05-11T08:40:27.391Z,71.70
2018-05-11T08:42:54.993Z,71.00
2018-05-11T08:45:22.613Z,71.50
2018-05-11T08:47:50.197Z,72.20
2018-05-11T08:50:17.837Z,72.40
2018-05-11T08:52:45.456Z,72.80
2018-05-11T08:55:13.827Z,73.80
2018-05-11T08:57:42.241Z,74.60
2018-05-11T09:00:09.846Z,74.50
2018-05-11T09:02:37.468Z,74.10
2018-05-11T09:05:05.032Z,72.40
2018-05-11T09:07:32.664Z,72.50
2018-05-11T09:10:01.044Z,71.80
2018-05-11T09:12:29.459Z,71.50
2018-05-11T09:14:57.032Z,71.50
2018-05-11T09:17:24.629Z,71.50
2018-05-11T09:19:52.204Z,72.10
2018-05-11T09:22:19.849Z,72.40
2018-05-11T09:24:47.454Z,72.30
2018-05-11T09:27:15.056Z,71.90
2018-05-11T09:29:45.104Z,72.10
2018-05-11T09:32:13.458Z,71.60
2018-05-11T09:34:41.050Z,71.50
2018-05-11T09:37:08.655Z,72.10
2018-05-11T09:39:36.344Z,71.30
2018-05-11T09:42:03.876Z,71.50
2018-05-11T09:44:31.504Z,70.60
2018-05-11T09:46:59.098Z,71.10
2018-05-11T09:49:26.827Z,71.80
2018-05-11T09:51:54.358Z,71.20
2018-05-11T09:54:22.706Z,71.40
2018-05-11T09:56:50.556Z,71.30
2018-05-11T09:59:18.185Z,71.40
2018-05-11T10:01:45.857Z,71.30
2018-05-11T10:04:13.487Z,70.50
2018-05-11T10:06:41.859Z,69.80
2018-05-11T10:09:09.488Z,69.80
2018-05-11T10:11:37.136Z,69.80
2018-05-11T10:14:04.737Z,69.00
2018-05-11T10:16:32.306Z,69.30
2018-05-11T10:19:00.672Z,66.30
2018-05-11T10:21:28.270Z,66.30
2018-05-11T10:23:55.864Z,65.50
2018-05-11T10:26:23.456Z,64.00
2018-05-11T10:28:51.367Z,63.30
2018-05-11T10:31:18.936Z,62.70
2018-05-11T10:33:46.539Z,62.90
2018-05-11T10:36:14.127Z,62.80
2018-05-11T10:38:42.491Z,63.10
2018-05-11T10:41:10.162Z,63.00
2018-05-11T10:43:37.803Z,62.70
2018-05-11T10:46:06.173Z,61.50
2018-05-11T10:48:33.807Z,61.40
2018-05-11T10:51:01.408Z,61.00
2018-05-11T10:53:29.039Z,60.50
2018-05-11T10:55:56.675Z,60.50
2018-05-11T10:58:24.298Z,59.60
2018-05-11T11:00:51.908Z,58.20
2018-05-11T11:03:19.523Z,58.00
2018-05-11T11:05:47.936Z,56.70
2018-05-11T11:08:15.538Z,56.50
2018-05-11T11:10:43.160Z,56.90
2018-05-11T11:13:10.754Z,57.10
2018-05-11T11:15:38.385Z,57.80
2018-05-11T11:18:05.951Z,57.00
2018-05-11T11:20:33.556Z,57.50
2018-05-11T11:23:01.161Z,58.10
2018-05-11T11:25:28.766Z,57.40
2018-05-11T11:27:56.365Z,57.70
2018-05-11T11:30:24.743Z,57.50
2018-05-11T11:32:53.106Z,58.30
2018-05-11T11:35:21.476Z,62.60
2018-05-11T11:37:49.101Z,62.00
2018-05-11T11:40:16.722Z,59.80
2018-05-11T11:42:44.328Z,59.90
2018-05-11T11:45:11.976Z,59.70
2018-05-11T11:47:39.612Z,58.90
2018-05-11T11:50:07.189Z,59.40
2018-05-11T11:52:34.812Z,59.00
2018-05-11T11:55:03.188Z,58.60
2018-05-11T11:57:31.578Z,57.60
2018-05-11T11:59:59.976Z,59.00
2018-05-11T12:02:27.598Z,58.90
2018-05-11T12:04:55.213Z,58.40
2018-05-11T12:07:22.826Z,58.40
2018-05-11T12:09:51.180Z,58.50
2018-05-11T12:12:18.808Z,58.50
2018-05-11T12:14:46.408Z,61.60
2018-05-11T12:17:14.046Z,63.10
2018-05-11T12:19:41.654Z,63.50
2018-05-11T12:22:10.046Z,63.80
2018-05-11T12:24:37.652Z,63.70
2018-05-11T12:27:05.410Z,64.50
2018-05-11T12:29:33.046Z,63.40
2018-05-11T12:32:00.638Z,64.50
2018-05-11T12:34:28.250Z,66.80
2018-05-11T12:36:56.648Z,68.10
2018-05-11T12:39:25.732Z,67.70
2018-05-11T12:41:54.118Z,65.30
2018-05-11T12:44:21.771Z,65.20
2018-05-11T12:46:49.408Z,63.60
2018-05-11T12:49:17.026Z,62.20
2018-05-11T12:51:44.622Z,58.50
2018-05-11T12:54:13.700Z,57.40
2018-05-11T12:56:41.320Z,57.50
2018-05-11T12:59:08.900Z,57.60
2018-05-11T13:01:36.528Z,59.00
2018-05-11T13:04:04.165Z,58.20
2018-05-11T13:06:31.772Z,58.40
2018-05-11T13:08:59.350Z,58.60
2018-05-11T13:11:26.961Z,57.30
2018-05-11T13:13:55.330Z,57.70
2018-05-11T13:16:22.960Z,57.70
2018-05-11T13:18:50.546Z,56.30
2018-05-11T13:21:18.178Z,56.90
2018-05-11T13:23:45.810Z,57.50
2018-05-11T13:26:13.806Z,57.50
2018-05-11T13:28:41.417Z,54.90
2018-05-11T13:31:09.812Z,52.30
2018-05-11T13:33:37.439Z,52.30
2018-05-11T13:36:05.084Z,50.60
2018-05-11T13:38:33.075Z,50.10
2018-05-11T13:41:01.429Z,50.60
2018-05-11T13:43:29.184Z,50.50
2018-05-11T13:45:56.779Z,51.40
2018-05-11T13:48:25.258Z,53.70
2018-05-11T13:50:53.556Z,54.80
2018-05-11T13:53:21.943Z,54.00
2018-05-11T13:55:49.553Z,54.00
2018-05-11T13:58:17.156Z,53.50
2018-05-11T14:00:45.000Z,53.10
2018-05-11T14:03:12.684Z,52.60
2018-05-11T14:05:41.059Z,52.00
2018-05-11T14:08:09.441Z,50.20
2018-05-11T14:10:37.831Z,50.60
2018-05-11T14:13:05.463Z,50.60
2018-05-11T14:15:33.069Z,51.30
2018-05-11T14:18:00.673Z,53.70
2018-05-11T14:20:28.297Z,53.90
2018-05-11T14:22:55.897Z,55.00
2018-05-11T14:25:23.563Z,55.40
2018-05-11T14:27:51.199Z,55.10
2018-05-11T14:30:18.816Z,55.40
2018-05-11T14:32:46.450Z,54.30
2018-05-11T14:35:14.099Z,53.90
2018-05-11T14:37:41.741Z,52.40
2018-05-11T14:40:09.365Z,50.70
2018-05-11T14:42:36.987Z,49.40
2018-05-11T14:45:04.606Z,49.10
2018-05-11T14:47:32.237Z,49.60
2018-05-11T14:50:00.607Z,49.80
2018-05-11T14:52:29.006Z,49.00
2018-05-11T14:54:57.394Z,49.50
2018-05-11T14:57:24.999Z,50.00
2018-05-11T14:59:52.628Z,49.90
2018-05-11T15:02:20.207Z,53.20
2018-05-11T15:04:47.869Z,55.10
2018-05-11T15:07:15.457Z,55.90
2018-05-11T15:09:43.104Z,56.40
2018-05-11T15:12:10.696Z,57.30
2018-05-11T15:14:39.080Z,55.20
2018-05-11T15:17:07.464Z,55.80
2018-05-11T15:19:35.042Z,55.80
2018-05-11T15:22:02.641Z,56.00
2018-05-11T15:24:30.270Z,54.70
2018-05-11T15:26:57.937Z,55.00
2018-05-11T15:29:25.649Z,52.80
2018-05-11T15:32:16.865Z,52.10
2018-05-11T15:34:44.499Z,51.90
2018-05-11T15:37:12.100Z,51.80
2018-05-11T15:39:40.467Z,53.00
2018-05-11T15:42:08.864Z,53.50
2018-05-11T15:44:36.463Z,53.90
2018-05-11T15:47:04.060Z,55.10
2018-05-11T15:49:31.684Z,56.00
2018-05-11T15:51:59.349Z,57.00
2018-05-11T15:54:26.943Z,57.40
2018-05-11T15:57:00.548Z,58.20
2018-05-11T15:59:28.183Z,58.10
2018-05-11T16:01:55.871Z,57.70
2018-05-11T16:04:24.231Z,58.50
2018-05-11T16:06:51.852Z,58.40
2018-05-11T16:09:19.691Z,58.10
2018-05-11T16:11:47.386Z,57.80
2018-05-11T16:14:15.020Z,57.50
2018-05-11T16:16:43.413Z,56.40
2018-05-11T16:19:11.241Z,56.40
2018-05-11T16:21:38.862Z,57.10
2018-05-11T16:24:06.467Z,57.00
2018-05-11T16:26:34.217Z,57.30
2018-05-11T16:29:02.324Z,58.20
2018-05-11T16:31:30.007Z,57.50
2018-05-11T16:33:57.917Z,57.60
2018-05-11T16:36:25.591Z,58.60
2018-05-11T16:38:54.009Z,57.60
2018-05-11T16:41:21.597Z,57.60
2018-05-11T16:43:49.221Z,58.60
2018-05-11T16:46:17.831Z,58.10
2018-05-11T16:48:45.451Z,58.60
2018-05-11T16:51:13.827Z,57.90
2018-05-11T16:53:42.355Z,57.70
2018-05-11T16:56:09.925Z,57.70
2018-05-11T16:58:38.565Z,57.60
2018-05-11T17:01:06.940Z,58.50
2018-05-11T17:03:35.322Z,59.10
2018-05-11T17:06:03.697Z,58.10
2018-05-11T17:08:32.108Z,58.60
2018-05-11T17:10:59.705Z,58.60
2018-05-11T17:13:27.315Z,58.40
2018-05-11T17:15:54.885Z,58.20
2018-05-11T17:18:22.670Z,57.60
2018-05-11T17:20:50.299Z,57.80
2018-05-11T17:23:17.874Z,60.00
2018-05-11T17:25:45.471Z,58.90
2018-05-11T17:28:13.933Z,58.60
2018-05-11T17:30:41.595Z,58.60
2018-05-11T17:33:09.193Z,58.70
2018-05-11T17:35:37.618Z,59.20
2018-05-11T17:38:05.261Z,59.10
2018-05-11T17:40:32.856Z,59.40
2018-05-11T17:43:00.480Z,59.40
2018-05-11T17:45:28.858Z,59.80
2018-05-11T17:47:56.496Z,59.80
2018-05-11T17:50:24.127Z,59.60
2018-05-11T17:52:51.755Z,59.50
2018-05-11T17:55:19.382Z,60.10
2018-05-11T17:57:47.002Z,60.30
2018-05-11T18:00:14.603Z,60.60
2018-05-11T18:02:42.277Z,60.50
2018-05-11T18:05:10.679Z,61.10
2018-05-11T18:07:38.316Z,61.00
2018-05-11T18:10:06.710Z,61.60
2018-05-11T18:12:35.073Z,61.70
2018-05-11T18:15:03.466Z,61.90
2018-05-11T18:17:31.884Z,61.90
2018-05-11T18:19:59.510Z,61.90
2018-05-11T18:22:27.112Z,62.10
2018-05-11T18:24:54.742Z,63.20
2018-05-11T18:27:22.369Z,63.10
2018-05-11T18:29:50.103Z,63.30
2018-05-11T18:32:18.373Z,64.10
2018-05-11T18:34:45.998Z,64.10
2018-05-11T18:37:13.625Z,64.80
2018-05-11T18:39:41.290Z,65.30
2018-05-11T18:42:08.852Z,65.30
2018-05-11T18:44:36.467Z,66.30
2018-05-11T18:47:04.111Z,66.40
2018-05-11T18:49:31.748Z,66.70
2018-05-11T18:52:00.131Z,68.00
2018-05-11T18:54:28.032Z,68.00
2018-05-11T18:59:29.402Z,68.00
2018-05-11T19:01:57.091Z,68.00
2018-05-11T19:04:24.690Z,68.20
2018-05-11T19:06:52.320Z,68.40
2018-05-11T19:09:19.931Z,68.40
2018-05-11T19:11:47.541Z,68.50
2018-05-11T19:14:15.168Z,69.00
2018-05-11T19:16:42.785Z,70.00
2018-05-11T19:19:11.226Z,69.90
2018-05-11T19:21:38.884Z,69.90
2018-05-11T19:24:06.520Z,69.60
2018-05-11T19:26:34.131Z,69.60
2018-05-11T19:29:01.789Z,70.80
2018-05-11T19:31:29.372Z,70.70
2018-05-11T19:34:03.166Z,71.10
2018-05-11T19:36:30.784Z,71.40
2018-05-11T19:39:05.521Z,71.40
2018-05-11T19:41:33.091Z,72.10
2018-05-11T19:44:00.716Z,72.40
2018-05-11T19:46:28.271Z,73.00
2018-05-11T19:48:55.882Z,73.50
2018-05-11T19:51:28.862Z,73.90
2018-05-11T19:53:56.497Z,74.50
2018-05-11T19:56:24.073Z,74.70
2018-05-11T19:59:05.635Z,75.10
2018-05-11T20:01:33.353Z,75.50
2018-05-11T20:04:00.953Z,75.90
2018-05-11T20:06:28.566Z,76.40
2018-05-11T20:08:56.183Z,76.40
2018-05-11T20:11:23.803Z,76.80
2018-05-11T20:13:52.173Z,77.00
2018-05-11T20:16:20.543Z,77.30
2018-05-11T20:18:48.139Z,77.30
2018-05-11T20:21:15.761Z,77.60
2018-05-11T20:23:44.107Z,78.70
2018-05-11T20:26:11.725Z,78.00
2018-05-11T20:28:39.335Z,78.00
2018-05-11T20:31:06.981Z,78.10
2018-05-11T20:33:34.592Z,78.20
2018-05-11T20:36:02.198Z,78.40
2018-05-11T20:38:29.818Z,78.20
2018-05-11T20:40:57.405Z,78.50
2018-05-11T20:43:25.033Z,78.80
2018-05-11T20:45:54.156Z,78.90
2018-05-11T20:48:22.537Z,79.20
2018-05-11T20:50:50.679Z,79.20
2018-05-11T20:53:18.221Z,79.40
2018-05-11T20:55:45.838Z,79.30
2018-05-11T20:58:13.447Z,79.40
2018-05-11T21:00:41.109Z,79.10
2018-05-11T21:03:08.794Z,78.60
2018-05-11T21:05:37.171Z,78.80
2018-05-11T21:08:04.831Z,78.80
2018-05-11T21:10:32.399Z,78.80
2018-05-11T21:13:00.801Z,78.50
2018-05-11T21:15:28.432Z,78.50
2018-05-11T21:17:56.052Z,79.40
2018-05-11T21:20:23.699Z,78.90
2018-05-11T21:22:51.375Z,78.70
2018-05-11T21:25:18.985Z,79.60
2018-05-11T21:27:47.363Z,79.50
2018-05-11T21:30:15.090Z,79.50
2018-05-11T21:32:42.722Z,79.40
2018-05-11T21:35:10.372Z,79.50
2018-05-11T21:37:38.113Z,79.50
2018-05-11T21:40:05.843Z,79.50
2018-05-11T21:42:33.481Z,80.10
2018-05-11T21:45:19.883Z,80.20
2018-05-11T21:47:47.627Z,80.10
2018-05-11T21:50:15.267Z,80.60
2018-05-11T21:52:42.925Z,80.60
2018-05-11T21:55:10.647Z,80.80
2018-05-11T21:57:38.347Z,80.70
2018-05-11T22:00:06.039Z,80.80
2018-05-11T22:02:33.714Z,81.00
2018-05-11T22:05:01.409Z,80.90
2018-05-11T22:07:29.156Z,80.70
2018-05-11T22:09:56.846Z,80.50
2018-05-11T22:12:24.521Z,80.40
2018-05-11T22:14:52.308Z,80.50
2018-05-11T22:17:20.741Z,79.50
2018-05-11T22:19:48.527Z,79.50
2018-05-11T22:22:16.304Z,79.50
2018-05-11T22:24:43.992Z,79.60
2018-05-11T22:27:11.911Z,80.00
2018-05-11T22:29:39.630Z,79.60
2018-05-11T22:32:07.395Z,79.00
2018-05-11T22:34:35.008Z,79.00
2018-05-11T22:37:02.751Z,78.60
2018-05-11T22:39:30.567Z,78.90
2018-05-11T22:41:59.005Z,79.10
2018-05-11T22:44:26.609Z,79.10
2018-05-11T22:46:54.297Z,79.40
2018-05-11T22:49:21.974Z,79.40
2018-05-11T22:51:49.991Z,80.00
2018-05-11T22:54:18.431Z,80.20
2018-05-11T22:56:46.305Z,80.00
2018-05-11T22:59:13.904Z,80.40
2018-05-11T23:01:41.869Z,80.60
2018-05-11T23:04:10.352Z,81.40
2018-05-11T23:06:38.793Z,82.00
2018-05-11T23:09:06.510Z,81.30
2018-05-11T23:11:35.062Z,81.40
2018-05-11T23:14:02.683Z,81.60
2018-05-11T23:16:30.328Z,81.90
2018-05-11T23:18:58.227Z,82.20
2018-05-11T23:21:25.881Z,82.40
2018-05-11T23:23:53.557Z,82.50
2018-05-11T23:26:21.312Z,82.70
2018-05-11T23:28:49.213Z,83.00
2018-05-11T23:31:17.045Z,83.30
2018-05-11T23:33:44.756Z,83.30
2018-05-11T23:36:13.216Z,84.00
2018-05-11T23:38:40.901Z,84.00
2018-05-11T23:41:09.434Z,84.90
2018-05-11T23:43:37.088Z,84.80
2018-05-11T23:46:04.698Z,85.10
2018-05-11T23:48:33.100Z,85.10
2018-05-11T23:51:01.349Z,85.00
2018-05-11T23:53:29.800Z,84.90
2018-05-11T23:55:57.431Z,84.80
2018-05-11T23:58:25.158Z,84.90
